This is the latest recevied weather packets stored in our database for station/object PP5FMM-10. If no packets are shown the sender has not sent any weather packets the latest 1 day(s).
| Time | Temp. | Humidity | Pressure | Rain* | Wind** | Luminosity | Snow |
|---|---|---|---|---|---|---|---|
| 1777916315 | 23.89° C | 68% | 1017.2 hPa | - | - | - | - |
| 1777915419 | 23.89° C | 69% | 1017.6 hPa | - | - | - | - |
| 1777915414 | 23.89° C | 69% | 1017.6 hPa | - | - | - | - |
| 1777914518 | 23.33° C | 69% | 1018 hPa | - | - | - | - |
| 1777914514 | 23.33° C | 69% | 1018 hPa | - | - | - | - |
| 1777913618 | 23.33° C | 68% | 1018.3 hPa | - | - | - | - |
| 1777913614 | 23.33° C | 68% | 1018.3 hPa | - | - | - | - |
| 1777912718 | 23.33° C | 69% | 1018.6 hPa | - | - | - | - |
| 1777912714 | 23.33° C | 69% | 1018.6 hPa | - | - | - | - |
| 1777911818 | 22.78° C | 71% | 1018.6 hPa | - | - | - | - |
| 1777911814 | 22.78° C | 71% | 1018.6 hPa | - | - | - | - |
| 1777910918 | 21.11° C | 77% | 1018.8 hPa | - | - | - | - |
| 1777910913 | 21.11° C | 77% | 1018.8 hPa | - | - | - | - |
| 1777910018 | 22.22° C | 72% | 1018.8 hPa | - | - | - | - |
| 1777910013 | 22.22° C | 72% | 1018.8 hPa | - | - | - | - |
| 1777909117 | 22.78° C | 66% | 1019.3 hPa | - | - | - | - |
| 1777909113 | 22.78° C | 66% | 1019.3 hPa | - | - | - | - |
| 1777908217 | 23.33° C | 66% | 1019.5 hPa | - | - | - | - |
| 1777908213 | 23.33° C | 66% | 1019.5 hPa | - | - | - | - |
| 1777907317 | 22.78° C | 67% | 1019.6 hPa | - | - | - | - |
| 1777907313 | 22.78° C | 67% | 1019.6 hPa | - | - | - | - |
| 1777906417 | 22.78° C | 66% | 1019.7 hPa | - | - | - | - |
| 1777906413 | 22.78° C | 66% | 1019.7 hPa | - | - | - | - |
| 1777905517 | 22.78° C | 66% | 1019.8 hPa | - | - | - | - |
| 1777905512 | 22.78° C | 66% | 1019.8 hPa | - | - | - | - |
* Rain since midnight (hover to see other rain measurements)
** Current wind speed in m/s (hover to see current wind gust speed)